Relevés horaires Chievres (Belgique)


Relevés horaires à Chievres - Dimanche 15 Oct. 2017
Heure UTC1 Température [°C] Vent [km/h] Hum. [%] Pres.4 [hPa] Visi. [Km] Nébu. [octa] Préc.5 [mm] Cond.
2m. Res. Ros. Dir.2 Vit. Moy. Raf.3
23:00 16.2 16.2 14.0 S 7.4 -- 11.1 87 1021.3(0.1/3h) 19 -- -- --
22:00 16.7 16.7 14.2 S 7.4 -- 11.1 85 1021.3(0.1/3h) 19 -- -- --
21:00 16.8 16.8 14.3 S 7.4 -- 13.0 85 1021.3(0.5/3h) 19 -- -- --
20:00 17.0 17.0 14.2 S 9.3 -- 11.1 84 1021.2(0.8/3h) 20 -- -- --
19:00 17.2 17.2 14.2 S 9.3 -- 13.0 83 1021.2(0.9/3h) 18 -- -- --
18:00 17.0 17.0 14.0 S 5.6 -- 14.8 82 1020.8(0.3/3h) 18 -- -- --
17:00 17.8 17.8 13.8 S 7.4 -- 11.1 77 1020.3(-0.1/3h) 20 -- -- --
16:00 20.6 20.6 13.3 S 7.4 -- 13.0 63 1020.2(-0.9/3h) 20 -- -- --
15:00 23.0 23.0 12.5 SSO 9.3 -- 14.8 52 1020.3(-1.2/3h) 20 -- -- --
14:00 23.2 23.2 13.5 S 7.4 -- 14.8 54 1020.5(-1.2/3h) 20 -- -- --
13:00 23.0 23.0 13.3 S 11.1 -- 14.8 54 1021.1(-1.2/3h) 18 -- -- --
12:00 22.1 22.1 13.6 S 9.3 -- 13.0 59 1021.6(-1.1/3h) 19 -- -- --
11:00 21.1 21.1 13.4 S 9.3 -- 11.1 61 1021.7(-1.1/3h) 20 -- -- --
10:00 18.7 18.7 13.0 S 5.6 -- 7.4 69 1022.3(-0.5/3h) 20 -- -- --
09:00 16.4 16.4 12.5 S 5.6 -- 9.3 78 1022.8(-0.1/3h) 20 -- -- --
08:00 14.6 14.6 12.1 S 5.6 -- 9.3 85 1023.2(-0.2/3h) 20 -- -- --
07:00 12.8 12.8 11.6 SSE 3.7 -- 7.4 92 1023.1(-0.4/3h) 18 -- -- --
06:00 12.5 12.5 11.4 SSE 3.7 -- 7.4 93 1023.1(-0.4/3h) 19 -- -- --
05:00 12.0 12.0 11.2 SE 3.7 -- 5.6 95 1023.3(-0.3/3h) 16 -- -- --
04:00 12.4 12.4 11.3 NNO 1.9 -- 7.4 93 1023.6(-0.6/3h) 16 -- -- --
03:00 12.7 12.7 11.6 SSE 5.6 -- 7.4 93 1023.6(-1.1/3h) 18 -- -- --
02:00 13.4 13.4 12.0 SSE 5.6 -- 7.4 91 1023.7(-1.1/3h) 17 -- -- --
01:00 13.2 13.2 11.9 SSE 5.6 -- 7.4 92 1024.2(-1.0/3h) 17 -- -- --
00:00 13.9 13.9 12.5 SSE 3.7 -- 7.4 91 1024.5(-0.9/3h) 20 -- -- --

1 Coordinated Universal Time. Actuellement il est 15:00 locale et 13:00 UTC.

2 Le vent souffle depuis la direction indiquée vers la direction oposée.

3 Les rafales max. sont disponible 40 min après l'heure du relevé.

4 Pour les stations d'altitude (plus de 600m) le géopotentiel du niveau le plus proche de la pression obligatoire est indiqué.

5 Les stations disposant d'un diffuseur peuvent indiquer "trace". Cela signifie que des précipitations ont touchés le sol mais que la quantité est inférieure à 0.1 mm.

Récapitulatif de la journée
Température [°C] Vent [km/h] Ensoleillement4 [h] Precipitations totale5 [mm] Pression [Hpa]
Min1 Max.2 Moy.3 Max. Min Max.
11.1 23.5 0 14.8 0 h 0 min 0 1020.2 1024.5

1 Température minimale relevée entre 18:00 UTC la veille et 18:00 UTC le jour donné.

2 Température maximale relevée entre 06:00 UTC le jour donné et 06:00 UTC le lendemain.

3 Vent moyen de la journée basé sur les relevés horaires.

4 Ensoleillement en heures relevé entre 06:00 UTC la veille et 06:00 UTC le jour donné.

5 Précipitations totales tombées entre 06:00 UTC la jour donné et 06:00 UTC le lendemain.

Graphiques horaires